Overview Statistics Trail Chart Weather Telemetry Raw packets
 

This is the latest recevied weather packets stored in our database for station/object IU3OVK-13. If no packets are shown the sender has not sent any weather packets the latest 10 day(s).

<< 1 2 3 4 >>
Time Temp. Humidity Pressure Rain* Wind** Luminosity Snow
1788667156 18.89° C 99% 1013.9 hPa - - - -
1788666536 18.33° C 99% 1014.1 hPa - - - -
1788665916 18.33° C 99% 1013.9 hPa - - - -
1788664675 18.89° C 99% 1014 hPa - - - -
1788664055 19.44° C 99% 1013.6 hPa - - - -
1788663435 18.89° C 99% 1013.4 hPa - - - -
1788662815 18.33° C 99% 1013.6 hPa - - - -
1788661575 19.44° C 99% 1013.3 hPa - - - -
1788660955 19.44° C 99% 1013.1 hPa - - - -
1788660334 18.89° C 99% 1013.3 hPa - - - -
1788659714 19.44° C 99% 1013.1 hPa - - - -
1788658473 19.44° C 99% 1013.2 hPa - - - -
1788641013 23.89° C 99% 1012.2 hPa - - - -
1788640392 23.89° C 99% 1012.4 hPa - - - -
1788639772 24.44° C 99% 1011.8 hPa - - - -
1788639152 23.89° C 99% 1012.6 hPa - - - -
1788638532 25° C 99% 1012 hPa - - - -
1788637911 24.44° C 99% 1011.8 hPa - - - -
1788637291 24.44° C 99% 1012.3 hPa - - - -
1788636671 24.44° C 99% 1012.2 hPa - - - -
1788636051 25.56° C 99% 1012.2 hPa - - - -
1788635431 25.56° C 99% 1011.8 hPa - - - -
1788634810 25.56° C 99% 1012 hPa - - - -
1788634190 26.11° C 99% 1012 hPa - - - -
1788633570 26.11° C 99% 1011.8 hPa - - - -

* Rain since midnight (hover to see other rain measurements)
** Current wind speed in m/s (hover to see current wind gust speed)